Time;durP1;ratioP1;P1;durP2;ratioP2;P2;SDS_P1;SDS_P2;PMS_P1;PMS_P2;Temp;Humidity;BMP_temperature;BMP_pressure;BME280_temperature;BME280_humidity;BME280_pressure;Samples;Min_cycle;Max_cycle;Signal;HPM_P1;HPM_P2
2023/05/22 00:03:50;;;;;;;10.07;9.18;;;;;;;21.85;56.23;99752.28;10275803;28;20066;-57
2023/05/22 00:08:52;;;;;;;10.15;9.35;;;;;;;21.81;56.31;99751.88;10254048;28;20127;-57
2023/05/22 00:13:53;;;;;;;9.80;8.85;;;;;;;21.76;56.15;99754.34;10270011;28;20058;-58
2023/05/22 00:18:56;;;;;;;9.77;8.77;;;;;;;21.72;55.81;99747.69;10268893;28;21049;-58
2023/05/22 00:23:57;;;;;;;10.35;9.32;;;;;;;21.71;55.76;99746.03;10254705;28;20133;-58
2023/05/22 00:28:59;;;;;;;10.00;9.07;;;;;;;21.66;55.74;99738.53;10270671;28;20057;-58
2023/05/22 00:34:00;;;;;;;9.48;8.70;;;;;;;21.64;55.82;99737.06;10274743;28;20053;-58
2023/05/22 00:39:02;;;;;;;10.35;9.43;;;;;;;21.61;55.97;99735.63;10271199;28;20502;-58
2023/05/22 00:44:04;;;;;;;10.75;9.75;;;;;;;21.53;56.17;99728.53;10242965;28;20527;-58
2023/05/22 00:49:05;;;;;;;8.40;7.70;;;;;;;21.54;56.18;99740.19;10277047;28;20057;-58
2023/05/22 00:54:09;;;;;;;10.13;9.15;;;;;;;21.50;56.54;99734.38;10276988;28;20085;-57
2023/05/22 00:59:10;;;;;;;9.63;8.73;;;;;;;21.50;56.51;99738.97;10277463;28;20069;-59
2023/05/22 01:04:14;;;;;;;9.65;8.75;;;;;;;21.43;56.67;99730.78;10258111;28;20249;-58
2023/05/22 01:09:15;;;;;;;9.90;8.95;;;;;;;21.40;57.15;99741.22;10250326;28;20065;-57
2023/05/22 01:14:45;;;;;;;9.73;8.73;;;;;;;21.29;57.32;99737.25;10269348;28;20634;-63
2023/05/22 01:20:05;;;;;;;11.32;9.25;;;;;;;21.22;57.72;99747.22;10277651;28;20062;-58
2023/05/22 01:25:19;;;;;;;9.57;8.77;;;;;;;21.18;58.03;99742.22;10268570;28;20076;-58
2023/05/22 01:30:45;;;;;;;11.35;9.10;;;;;;;21.19;58.11;99746.56;10269288;28;20115;-57
2023/05/22 01:35:52;;;;;;;11.60;9.82;;;;;;;21.13;58.26;99744.69;10272330;28;20050;-58
2023/05/22 01:40:55;;;;;;;10.85;9.73;;;;;;;21.10;58.32;99745.09;10271162;28;20192;-58
2023/05/22 01:45:57;;;;;;;12.23;9.40;;;;;;;21.06;58.01;99743.84;10271329;28;20050;-59
2023/05/22 01:51:21;;;;;;;9.80;8.85;;;;;;;21.02;58.10;99748.00;10272926;28;20046;-58
2023/05/22 01:56:33;;;;;;;9.98;8.95;;;;;;;21.00;58.28;99745.50;10251692;28;20176;-58
2023/05/22 02:01:37;;;;;;;10.48;9.40;;;;;;;20.94;58.08;99740.06;10269688;28;20111;-58
2023/05/22 02:06:40;;;;;;;10.60;9.63;;;;;;;20.92;58.10;99744.84;10270441;28;20061;-59
2023/05/22 02:11:42;;;;;;;10.47;9.40;;;;;;;20.91;58.51;99745.88;10270088;28;20085;-59
2023/05/22 02:16:46;;;;;;;10.88;9.75;;;;;;;20.87;58.25;99750.88;10271080;28;20061;-57
2023/05/22 02:21:48;;;;;;;10.77;9.38;;;;;;;20.79;58.47;99737.53;10254865;28;20058;-58
2023/05/22 02:26:49;;;;;;;9.25;8.38;;;;;;;20.82;58.32;99751.50;10271443;28;20049;-58
2023/05/22 02:31:52;;;;;;;9.00;8.20;;;;;;;20.80;58.25;99750.84;10270517;28;20179;-58
2023/05/22 02:36:55;;;;;;;9.93;9.02;;;;;;;20.76;58.39;99744.19;10251940;28;20053;-58
2023/05/22 02:41:56;;;;;;;9.45;8.57;;;;;;;20.72;58.44;99742.91;10269500;28;20776;-59
2023/05/22 02:46:58;;;;;;;9.80;8.65;;;;;;;20.68;58.52;99736.25;10258943;28;20149;-58
2023/05/22 02:52:00;;;;;;;10.45;9.55;;;;;;;20.67;58.86;99742.69;10266760;28;20054;-59
2023/05/22 02:57:02;;;;;;;9.27;8.38;;;;;;;20.65;58.74;99747.44;10250610;28;20057;-58
2023/05/22 03:02:04;;;;;;;9.45;8.65;;;;;;;20.62;58.57;99748.66;10265963;28;20123;-58
2023/05/22 03:07:06;;;;;;;9.70;8.80;;;;;;;20.61;58.79;99746.16;10263911;28;20089;-59
2023/05/22 03:12:08;;;;;;;9.68;8.68;;;;;;;20.57;58.80;99744.91;10266475;28;20070;-58
2023/05/22 03:17:10;;;;;;;10.88;9.85;;;;;;;20.55;59.10;99746.97;10265843;28;20053;-58
2023/05/22 03:22:12;;;;;;;10.65;9.65;;;;;;;20.49;59.08;99743.19;10248794;28;20841;-58
2023/05/22 03:27:15;;;;;;;10.13;9.13;;;;;;;20.48;59.23;99749.66;10255720;28;20061;-61
2023/05/22 03:32:17;;;;;;;9.88;8.88;;;;;;;20.45;59.42;99759.00;10269844;28;20058;-60
2023/05/22 03:37:18;;;;;;;11.05;9.63;;;;;;;20.41;59.75;99756.88;10279406;28;20408;-57
2023/05/22 03:42:20;;;;;;;9.65;8.75;;;;;;;20.38;59.79;99746.47;10282509;28;20050;-57
2023/05/22 03:47:22;;;;;;;10.60;9.70;;;;;;;20.35;60.03;99747.72;10260543;28;20516;-58
2023/05/22 03:52:24;;;;;;;9.95;9.05;;;;;;;20.36;60.16;99760.19;10261008;28;20121;-57
2023/05/22 03:57:26;;;;;;;10.23;9.30;;;;;;;20.32;60.41;99750.81;10270399;28;20498;-57
2023/05/22 04:02:28;;;;;;;11.98;10.95;;;;;;;20.28;60.98;99753.09;10273585;28;20065;-58
2023/05/22 04:07:31;;;;;;;11.37;10.23;;;;;;;20.25;61.29;99749.94;10221102;28;20053;-57
2023/05/22 04:12:33;;;;;;;10.70;9.73;;;;;;;20.25;61.48;99756.19;10272330;28;20830;-58
2023/05/22 04:17:38;;;;;;;10.70;9.73;;;;;;;20.21;61.54;99756.78;10263776;28;20057;-58
2023/05/22 04:22:40;;;;;;;10.45;9.35;;;;;;;20.22;61.35;99763.84;10267143;28;20212;-57
2023/05/22 04:27:42;;;;;;;10.30;9.40;;;;;;;20.15;61.71;99753.00;10265745;28;20054;-58
2023/05/22 04:32:43;;;;;;;10.65;9.68;;;;;;;20.23;61.77;99760.13;10268250;28;20061;-56
2023/05/22 04:37:45;;;;;;;9.82;8.95;;;;;;;20.21;61.56;99754.91;10281042;28;20068;-58
2023/05/22 04:42:46;;;;;;;10.30;9.35;;;;;;;20.23;61.54;99768.22;10277399;28;20766;-58
2023/05/22 04:47:48;;;;;;;9.88;9.02;;;;;;;20.22;61.32;99782.75;10283824;28;20050;-58
2023/05/22 04:52:50;;;;;;;11.02;9.88;;;;;;;20.21;61.50;99773.00;10279243;28;20553;-58
2023/05/22 04:57:51;;;;;;;10.13;9.15;;;;;;;20.24;61.60;99783.41;10281104;28;20076;-58
2023/05/22 05:02:54;;;;;;;10.45;9.45;;;;;;;20.24;61.51;99773.44;10280766;28;20265;-58
2023/05/22 05:07:55;;;;;;;11.00;9.90;;;;;;;20.27;61.72;99777.59;10263820;28;21036;-57
2023/05/22 05:12:57;;;;;;;10.20;9.30;;;;;;;20.34;61.58;99781.16;10274229;28;20101;-57
2023/05/22 05:17:58;;;;;;;10.38;9.35;;;;;;;20.39;61.75;99781.41;10274370;28;21346;-58
2023/05/22 05:23:00;;;;;;;9.95;9.05;;;;;;;20.46;61.36;99787.69;10278845;28;20081;-57
2023/05/22 05:28:09;;;;;;;10.68;8.77;;;;;;;20.53;61.43;99786.91;10261564;28;20054;-57
2023/05/22 05:33:11;;;;;;;9.93;9.02;;;;;;;20.62;61.16;99791.09;10256606;28;20397;-57
2023/05/22 05:38:15;;;;;;;11.32;9.35;;;;;;;20.71;61.13;99789.91;10281088;28;20056;-57
2023/05/22 05:43:18;;;;;;;9.90;9.07;;;;;;;20.78;60.92;99796.19;10257811;28;20054;-57
2023/05/22 05:48:19;;;;;;;9.93;9.02;;;;;;;20.84;60.89;99798.09;10276675;28;20569;-58
2023/05/22 05:53:21;;;;;;;10.00;9.00;;;;;;;20.89;60.42;99796.66;10272816;28;20377;-57
2023/05/22 05:58:22;;;;;;;9.02;8.20;;;;;;;20.88;60.39;99806.63;10276991;28;20143;-58
2023/05/22 06:03:26;;;;;;;9.25;8.45;;;;;;;20.89;59.81;99807.47;10273939;28;20160;-57
2023/05/22 06:08:28;;;;;;;9.80;8.80;;;;;;;20.93;59.85;99809.59;10273296;28;20057;-58
2023/05/22 06:13:29;;;;;;;8.77;7.97;;;;;;;21.08;59.78;99806.72;10273959;28;20081;-58
2023/05/22 06:18:31;;;;;;;9.77;8.77;;;;;;;21.16;58.76;99811.94;10268977;28;20534;-57
2023/05/22 06:23:33;;;;;;;10.90;8.90;;;;;;;21.24;58.41;99816.31;10252796;28;20062;-58
2023/05/22 06:28:34;;;;;;;9.70;8.80;;;;;;;21.34;58.77;99819.47;10267069;28;20052;-57
2023/05/22 06:33:36;;;;;;;11.10;9.70;;;;;;;21.48;58.17;99817.66;10270700;28;20057;-56
2023/05/22 06:38:38;;;;;;;10.13;9.23;;;;;;;21.54;57.99;99803.31;10275077;28;20049;-56
2023/05/22 06:43:39;;;;;;;9.57;8.43;;;;;;;21.62;58.04;99806.84;10267537;28;20532;-60
2023/05/22 06:48:41;;;;;;;9.70;8.70;;;;;;;21.69;57.56;99821.22;10270172;28;20089;-57
2023/05/22 06:53:42;;;;;;;10.80;9.25;;;;;;;21.78;57.67;99825.41;10272749;28;20063;-58
2023/05/22 06:58:45;;;;;;;10.10;9.10;;;;;;;21.84;56.69;99827.31;10249975;28;20114;-57
2023/05/22 07:03:46;;;;;;;11.20;10.00;;;;;;;21.98;56.46;99824.56;10272160;28;20057;-57
2023/05/22 07:08:47;;;;;;;9.30;8.27;;;;;;;22.14;56.09;99829.56;10256670;28;20069;-56
2023/05/22 07:13:49;;;;;;;9.68;8.65;;;;;;;22.27;56.33;99830.63;10274549;28;20050;-57
2023/05/22 07:18:52;;;;;;;8.88;8.13;;;;;;;22.42;55.47;99833.97;10269853;28;20053;-57
2023/05/22 07:23:53;;;;;;;10.15;8.98;;;;;;;22.57;54.31;99837.25;10269792;28;20069;-58
2023/05/22 07:28:55;;;;;;;9.80;8.85;;;;;;;22.69;54.04;99836.63;10267567;28;20165;-58
2023/05/22 07:33:57;;;;;;;9.32;8.38;;;;;;;22.76;54.10;99821.97;10268803;28;20164;-57
2023/05/22 07:38:58;;;;;;;10.15;8.70;;;;;;;22.93;52.59;99827.75;10269286;28;20073;-58
2023/05/22 07:44:00;;;;;;;9.10;7.70;;;;;;;22.97;53.17;99825.44;10267970;28;20059;-58
2023/05/22 07:49:01;;;;;;;9.38;8.38;;;;;;;23.14;53.00;99823.09;10268391;28;20132;-58
2023/05/22 07:54:03;;;;;;;8.52;7.72;;;;;;;23.39;52.86;99819.59;10265758;28;20054;-57
2023/05/22 07:59:06;;;;;;;9.20;8.40;;;;;;;23.59;52.14;99830.38;10256218;28;20057;-57
2023/05/22 08:04:07;;;;;;;11.07;8.25;;;;;;;23.80;51.55;99823.72;10258846;28;20065;-56
2023/05/22 08:09:10;;;;;;;9.85;8.85;;;;;;;23.92;50.88;99824.69;10279271;28;20732;-56
2023/05/22 08:14:11;;;;;;;10.02;9.07;;;;;;;23.96;49.90;99825.06;10253752;28;20053;-57
2023/05/22 08:19:13;;;;;;;11.05;10.05;;;;;;;24.04;49.67;99818.56;10274495;28;20082;-56
2023/05/22 08:24:15;;;;;;;10.10;9.10;;;;;;;24.11;50.06;99819.31;10275035;28;20058;-56
2023/05/22 08:29:17;;;;;;;9.98;9.07;;;;;;;24.25;50.01;99820.03;10267112;28;20119;-57
2023/05/22 08:34:18;;;;;;;10.57;8.70;;;;;;;24.39;49.30;99809.84;10275422;28;20524;-57
2023/05/22 08:39:20;;;;;;;10.48;9.43;;;;;;;24.56;49.33;99810.06;10272228;28;20050;-56
2023/05/22 08:44:23;;;;;;;10.65;9.65;;;;;;;24.72;48.83;99814.94;10274224;28;20077;-56
2023/05/22 08:49:25;;;;;;;11.02;10.02;;;;;;;24.94;48.10;99811.75;10273759;28;20233;-57
2023/05/22 08:54:29;;;;;;;11.00;9.90;;;;;;;25.02;47.47;99808.72;10273620;28;20126;-56
2023/05/22 08:59:31;;;;;;;9.40;8.48;;;;;;;25.26;47.44;99800.66;10268518;28;20838;-56
2023/05/22 09:04:32;;;;;;;9.18;8.38;;;;;;;25.52;45.66;99802.16;10271061;28;20089;-56
2023/05/22 09:09:37;;;;;;;10.15;9.15;;;;;;;25.75;45.65;99795.94;10240605;28;20061;-56
2023/05/22 09:14:42;;;;;;;9.25;8.45;;;;;;;25.90;45.87;99793.59;10262341;28;20061;-56
2023/05/22 09:19:45;;;;;;;9.23;8.30;;;;;;;25.97;44.73;99793.47;10264336;28;20144;-57
2023/05/22 09:24:46;;;;;;;8.20;7.50;;;;;;;26.24;44.79;99793.88;10263754;28;20054;-56
2023/05/22 09:29:52;;;;;;;9.80;8.80;;;;;;;26.45;44.04;99792.44;10254121;28;20285;-57
2023/05/22 09:35:01;;;;;;;10.35;9.35;;;;;;;26.69;43.41;99786.94;10268856;28;20077;-57
2023/05/22 09:40:09;;;;;;;9.95;8.85;;;;;;;26.99;43.88;99783.16;10260520;28;20042;-57
2023/05/22 09:45:11;;;;;;;11.15;10.15;;;;;;;27.24;41.06;99785.56;10264040;28;20144;-57
2023/05/22 09:50:13;;;;;;;11.45;10.40;;;;;;;27.34;42.38;99791.25;10269920;28;20163;-57
2023/05/22 09:55:15;;;;;;;9.77;8.98;;;;;;;27.56;42.58;99789.69;10270037;28;20057;-57
2023/05/22 10:00:18;;;;;;;9.50;8.60;;;;;;;27.63;41.98;99779.44;10266972;28;20687;-57
2023/05/22 10:05:21;;;;;;;10.48;9.45;;;;;;;27.79;41.40;99777.75;10267731;28;20057;-57
2023/05/22 10:10:24;;;;;;;9.50;8.70;;;;;;;27.46;42.04;99784.88;10264414;28;20058;-56
2023/05/22 10:15:26;;;;;;;8.98;8.18;;;;;;;27.78;41.57;99782.41;10255134;28;20050;-58
2023/05/22 10:20:28;;;;;;;10.03;9.07;;;;;;;28.10;41.04;99781.81;10263788;28;20216;-57
2023/05/22 10:25:30;;;;;;;9.45;8.65;;;;;;;28.30;41.28;99770.38;10261417;28;20355;-57
2023/05/22 10:31:04;;;;;;;9.07;8.27;;;;;;;28.46;42.82;99765.09;10247596;28;21761;-57
2023/05/22 10:36:53;;;;;;;9.25;8.35;;;;;;;28.78;41.24;99764.41;10263283;28;20069;-56
2023/05/22 10:42:00;;;;;;;9.93;9.13;;;;;;;28.99;41.63;99749.88;10234840;28;20054;-57
2023/05/22 10:47:10;;;;;;;8.57;7.77;;;;;;;29.22;41.28;99748.75;10264749;28;20482;-63
2023/05/22 10:52:13;;;;;;;10.20;9.25;;;;;;;29.33;41.14;99735.16;10263839;28;20923;-56
2023/05/22 10:57:16;;;;;;;11.80;10.60;;;;;;;28.99;40.78;99749.03;10267703;28;20053;-56
2023/05/22 11:02:29;;;;;;;10.18;9.27;;;;;;;29.14;40.59;99740.97;10263568;28;20061;-57
2023/05/22 11:07:41;;;;;;;9.70;8.93;;;;;;;29.50;40.15;99744.06;10244955;28;20184;-57
2023/05/22 11:12:42;;;;;;;10.10;9.07;;;;;;;29.80;39.90;99732.50;10262145;28;20068;-57
2023/05/22 11:17:50;;;;;;;10.67;9.63;;;;;;;30.14;38.84;99731.38;10263217;28;20080;-57
2023/05/22 11:22:56;;;;;;;9.80;8.38;;;;;;;30.52;38.42;99739.53;10258648;28;20773;-57
2023/05/22 11:28:00;;;;;;;9.75;8.85;;;;;;;30.63;37.91;99728.31;10262005;28;20253;-57
2023/05/22 11:33:04;;;;;;;9.63;8.73;;;;;;;30.53;38.19;99721.97;10261305;28;20065;-57
2023/05/22 11:38:06;;;;;;;9.90;9.05;;;;;;;30.41;38.01;99724.94;10267487;28;20123;-57
2023/05/22 11:43:08;;;;;;;9.98;9.07;;;;;;;30.42;37.43;99715.63;10247460;28;20141;-58
2023/05/22 11:48:11;;;;;;;;;;;;;;;30.45;37.48;99723.31;10244679;28;20061;-57
2023/05/22 11:53:15;;;;;;;10.07;9.18;;;;;;;30.56;37.93;99710.44;10253049;28;20036;-61
2023/05/22 11:58:25;;;;;;;9.93;8.98;;;;;;;30.65;37.75;99704.16;10264829;28;20499;-57
2023/05/22 12:03:29;;;;;;;9.88;9.00;;;;;;;30.68;37.18;99703.59;10246483;28;20065;-58
2023/05/22 12:08:31;;;;;;;10.00;8.95;;;;;;;30.62;37.05;99699.19;10246888;28;20059;-57
2023/05/22 12:13:32;;;;;;;8.52;7.72;;;;;;;30.06;38.75;99685.22;10264498;28;20086;-56
2023/05/22 12:18:36;;;;;;;10.48;9.35;;;;;;;30.37;37.80;99685.34;10265685;28;20151;-57
2023/05/22 12:23:47;;;;;;;10.48;9.52;;;;;;;30.55;36.65;99686.81;10258841;28;20547;-57
2023/05/22 12:28:53;;;;;;;10.13;9.30;;;;;;;30.59;36.28;99680.50;10261703;28;20537;-56
2023/05/22 12:33:55;;;;;;;9.63;8.77;;;;;;;30.65;37.38;99679.44;10265036;28;20725;-57
2023/05/22 12:38:57;;;;;;;9.85;8.93;;;;;;;30.70;36.65;99669.56;10260982;28;20054;-57
2023/05/22 12:43:58;;;;;;;10.00;9.00;;;;;;;30.79;35.99;99670.66;10246343;28;20050;-56
2023/05/22 12:49:00;;;;;;;10.23;9.32;;;;;;;30.89;36.49;99665.19;10251483;28;20104;-57
2023/05/22 12:54:02;;;;;;;10.25;9.45;;;;;;;30.84;36.34;99662.44;10268076;28;20717;-56
2023/05/22 12:59:03;;;;;;;9.07;8.27;;;;;;;30.87;35.92;99656.41;10265226;28;20065;-57
2023/05/22 13:04:05;;;;;;;10.48;9.38;;;;;;;30.32;36.52;99659.53;10249013;28;20522;-56
2023/05/22 13:09:07;;;;;;;10.70;8.95;;;;;;;30.11;36.33;99657.81;10251527;28;20188;-56
2023/05/22 13:14:08;;;;;;;10.73;8.75;;;;;;;30.10;36.20;99658.88;10270995;28;20062;-57
2023/05/22 13:19:10;;;;;;;9.80;8.82;;;;;;;30.01;36.48;99649.53;10252770;28;20057;-56
2023/05/22 13:24:12;;;;;;;;;;;;;;;29.99;36.24;99652.53;10273424;28;20195;-57
2023/05/22 13:29:14;;;;;;;9.87;9.00;;;;;;;29.72;37.18;99647.97;10266805;28;19925;-57
2023/05/22 13:34:15;;;;;;;11.00;9.90;;;;;;;29.74;36.47;99642.22;10259573;28;21529;-57
2023/05/22 13:39:17;;;;;;;10.35;9.35;;;;;;;29.80;36.95;99643.94;10267845;28;20534;-58
2023/05/22 13:44:19;;;;;;;9.00;8.23;;;;;;;29.74;35.70;99645.81;10265459;28;20497;-56
2023/05/22 13:49:21;;;;;;;9.93;7.90;;;;;;;29.73;37.88;99646.06;10271546;28;20058;-55
2023/05/22 13:54:22;;;;;;;8.37;7.57;;;;;;;29.66;36.93;99640.81;10245084;28;20058;-55
2023/05/22 13:59:24;;;;;;;7.97;7.20;;;;;;;29.60;36.07;99639.94;10272693;28;20060;-56
2023/05/22 14:04:26;;;;;;;8.13;7.40;;;;;;;29.41;37.43;99627.75;10264408;28;20331;-56
2023/05/22 14:09:28;;;;;;;8.87;8.17;;;;;;;29.46;36.97;99629.72;10266431;28;20557;-55
2023/05/22 14:14:30;;;;;;;7.40;6.72;;;;;;;29.55;36.96;99618.00;10267876;28;20634;-56
2023/05/22 14:19:31;;;;;;;8.30;7.50;;;;;;;29.48;36.63;99609.16;10270688;28;20500;-56
2023/05/22 14:24:33;;;;;;;7.77;7.07;;;;;;;29.51;36.06;99603.16;10266552;28;20050;-55
2023/05/22 14:29:34;;;;;;;7.77;7.07;;;;;;;29.47;35.42;99591.09;10266408;28;20339;-55
2023/05/22 14:34:36;;;;;;;7.80;7.10;;;;;;;29.36;35.76;99589.34;10265187;28;20101;-55
2023/05/22 14:39:37;;;;;;;8.50;7.60;;;;;;;29.16;36.50;99600.97;10267302;28;20384;-55
2023/05/22 14:44:39;;;;;;;8.47;7.80;;;;;;;29.04;36.71;99584.72;10264368;28;20104;-55
2023/05/22 14:49:41;;;;;;;10.65;8.50;;;;;;;29.00;38.26;99600.84;10271762;28;20061;-57
2023/05/22 14:54:42;;;;;;;9.60;8.77;;;;;;;28.97;38.19;99597.81;10268159;28;20106;-54
2023/05/22 14:59:44;;;;;;;9.53;8.73;;;;;;;28.76;38.85;99597.63;10266014;28;20132;-55
2023/05/22 15:04:45;;;;;;;8.70;7.95;;;;;;;28.56;38.72;99609.19;10265371;28;20192;-55
2023/05/22 15:09:47;;;;;;;15.03;8.77;;;;;;;28.41;39.64;99617.25;10273624;28;20236;-57
2023/05/22 15:14:48;;;;;;;8.97;8.07;;;;;;;28.14;40.59;99623.50;10276467;28;20054;-55
2023/05/22 15:19:50;;;;;;;10.00;6.05;;;;;;;27.94;39.66;99618.53;10273864;28;20648;-56
2023/05/22 15:25:08;;;;;;;8.32;6.45;;;;;;;27.48;39.98;99614.09;10271701;28;20545;-56
2023/05/22 15:30:10;;;;;;;6.00;4.97;;;;;;;26.93;39.70;99625.75;10266710;28;20628;-56
2023/05/22 15:35:12;;;;;;;;;;;;;;;26.99;37.87;99619.31;10272159;28;20061;-56
2023/05/22 15:40:17;;;;;;;4.78;4.28;;;;;;;26.91;37.88;99606.06;10273117;28;21143;-56
2023/05/22 15:45:19;;;;;;;6.45;3.95;;;;;;;27.26;37.93;99611.31;10268127;28;20116;-56
2023/05/22 15:50:20;;;;;;;4.03;3.72;;;;;;;27.47;37.44;99615.19;10272847;28;20439;-56
2023/05/22 15:55:22;;;;;;;4.57;3.63;;;;;;;27.54;37.87;99617.75;10269278;28;20133;-56
2023/05/22 16:00:25;;;;;;;4.63;3.70;;;;;;;27.54;37.71;99614.19;10233880;28;20469;-56
2023/05/22 16:05:26;;;;;;;3.83;3.53;;;;;;;27.51;37.72;99621.81;10259460;28;20489;-55
2023/05/22 16:10:27;;;;;;;5.78;3.60;;;;;;;27.62;38.08;99652.88;10243535;28;20172;-56
2023/05/22 16:15:30;;;;;;;6.72;5.95;;;;;;;27.52;39.65;99660.91;10259191;28;20050;-55
2023/05/22 16:20:32;;;;;;;8.32;6.20;;;;;;;27.34;39.81;99664.72;10259771;28;20053;-55
2023/05/22 16:25:34;;;;;;;;;;;;;;;27.19;39.62;99678.09;10264815;28;20829;-56
2023/05/22 16:30:35;;;;;;;6.07;4.60;;;;;;;27.15;39.78;99672.28;10260380;28;19999;-55
2023/05/22 16:35:37;;;;;;;5.30;4.65;;;;;;;27.12;40.31;99664.59;10255516;28;20391;-55
2023/05/22 16:40:39;;;;;;;5.88;4.93;;;;;;;27.08;40.14;99672.47;10271754;28;20139;-55
2023/05/22 16:45:45;;;;;;;7.22;5.95;;;;;;;27.02;40.42;99684.34;10253144;28;20761;-60
2023/05/22 16:50:47;;;;;;;6.82;6.13;;;;;;;26.99;41.56;99690.31;10273671;28;20050;-55
2023/05/22 16:55:48;;;;;;;9.15;7.88;;;;;;;26.84;41.99;99709.97;10275315;28;20061;-55
2023/05/22 17:00:50;;;;;;;7.93;7.00;;;;;;;26.78;42.28;99706.34;10271965;28;20357;-55
2023/05/22 17:05:51;;;;;;;7.53;6.78;;;;;;;26.67;42.68;99699.00;10274511;28;20477;-55
2023/05/22 17:10:53;;;;;;;48.42;28.77;;;;;;;26.57;43.99;99694.16;10262660;28;20065;-58
2023/05/22 17:15:55;;;;;;;18.38;10.80;;;;;;;26.38;44.44;99695.41;10270511;28;20100;-59
2023/05/22 17:20:57;;;;;;;10.55;7.05;;;;;;;26.22;44.62;99714.16;10276234;28;20046;-58
2023/05/22 17:25:58;;;;;;;5.95;5.45;;;;;;;26.12;44.55;99735.75;10263950;28;20053;-59
2023/05/22 17:31:00;;;;;;;7.15;6.20;;;;;;;25.96;45.02;99750.94;10262501;28;20213;-58
2023/05/22 17:36:01;;;;;;;7.38;6.47;;;;;;;25.90;46.67;99782.69;10275271;28;20465;-60
2023/05/22 17:41:02;;;;;;;9.23;6.63;;;;;;;25.61;48.43;99800.75;10238710;28;20093;-59
2023/05/22 17:46:04;;;;;;;8.57;7.70;;;;;;;25.46;50.67;99823.03;10276470;28;20049;-59
2023/05/22 17:51:06;;;;;;;8.50;7.60;;;;;;;24.96;53.22;99826.78;10259444;28;20058;-58
2023/05/22 17:56:08;;;;;;;9.35;8.50;;;;;;;24.72;53.08;99828.53;10266289;28;20236;-58
2023/05/22 18:01:09;;;;;;;8.38;7.57;;;;;;;24.84;53.10;99825.91;10267482;28;20149;-58
2023/05/22 18:06:11;;;;;;;7.90;7.20;;;;;;;24.86;53.83;99821.03;10270073;28;20120;-57
2023/05/22 18:11:12;;;;;;;8.13;7.30;;;;;;;24.64;53.13;99799.75;10273139;28;20726;-58
2023/05/22 18:16:18;;;;;;;8.60;7.72;;;;;;;24.58;53.79;99803.38;10270624;28;22596;-61
2023/05/22 18:21:19;;;;;;;8.88;7.97;;;;;;;24.51;54.99;99787.09;10246810;28;20128;-58
2023/05/22 18:26:21;;;;;;;9.45;8.32;;;;;;;24.55;55.08;99782.03;10255283;28;20050;-59
2023/05/22 18:31:24;;;;;;;8.40;7.53;;;;;;;24.55;55.94;99771.16;10248660;28;20734;-58
2023/05/22 18:36:26;;;;;;;8.15;7.03;;;;;;;24.51;57.16;99778.94;10267435;28;20164;-58
2023/05/22 18:41:28;;;;;;;8.20;7.47;;;;;;;24.44;56.74;99785.50;10266593;28;20177;-60
2023/05/22 18:46:29;;;;;;;8.77;7.05;;;;;;;24.46;56.49;99784.22;10259901;28;20090;-59
2023/05/22 18:51:32;;;;;;;11.30;7.43;;;;;;;24.23;57.07;99784.91;10257873;28;20944;-59
2023/05/22 18:56:33;;;;;;;8.00;7.20;;;;;;;24.07;56.75;99785.47;10251555;28;20589;-58
2023/05/22 19:01:35;;;;;;;7.90;6.85;;;;;;;24.11;56.46;99781.25;10249017;28;20116;-58
2023/05/22 19:06:40;;;;;;;9.63;7.00;;;;;;;24.06;56.63;99776.47;10263159;28;20050;-59
2023/05/22 19:11:42;;;;;;;8.98;6.95;;;;;;;23.94;55.97;99775.56;10263286;28;20499;-59
2023/05/22 19:16:43;;;;;;;9.73;7.50;;;;;;;23.90;56.44;99772.47;10269610;28;20131;-58
2023/05/22 19:21:45;;;;;;;8.00;7.18;;;;;;;23.78;56.18;99783.19;10261082;28;20144;-58
2023/05/22 19:26:46;;;;;;;8.00;6.75;;;;;;;23.58;56.02;99772.47;10267703;28;20181;-58
2023/05/22 19:31:48;;;;;;;10.35;7.43;;;;;;;23.67;55.71;99778.47;10261214;28;20062;-58
2023/05/22 19:36:50;;;;;;;7.32;6.65;;;;;;;23.50;55.19;99785.50;10251282;28;21576;-58
2023/05/22 19:41:53;;;;;;;8.40;6.80;;;;;;;23.44;54.51;99793.47;10256864;28;20062;-59
2023/05/22 19:46:55;;;;;;;6.53;5.87;;;;;;;23.18;52.87;99794.47;10272504;28;20054;-58
2023/05/22 19:51:58;;;;;;;5.80;5.30;;;;;;;23.12;51.20;99789.91;10278461;28;20431;-58
2023/05/22 19:56:59;;;;;;;4.68;4.28;;;;;;;22.92;50.49;99795.41;10276177;28;20062;-58
2023/05/22 20:02:01;;;;;;;4.80;4.40;;;;;;;22.91;48.79;99804.59;10275948;28;20171;-58
2023/05/22 20:07:04;;;;;;;4.60;4.15;;;;;;;22.98;49.16;99816.25;10254150;28;20054;-58
2023/05/22 20:12:06;;;;;;;4.30;3.90;;;;;;;22.83;49.01;99816.50;10275261;28;20080;-58
2023/05/22 20:17:07;;;;;;;4.72;4.32;;;;;;;22.88;49.42;99824.84;10277552;28;20063;-58
2023/05/22 20:22:09;;;;;;;5.40;4.90;;;;;;;22.98;49.29;99820.84;10274607;28;20065;-59
2023/05/22 20:27:12;;;;;;;7.18;6.35;;;;;;;23.00;49.83;99829.59;10261440;28;20081;-58
2023/05/22 20:32:13;;;;;;;8.50;6.50;;;;;;;22.95;51.14;99839.25;10269088;28;21344;-59
2023/05/22 20:37:14;;;;;;;9.10;8.20;;;;;;;22.81;52.34;99848.47;10256841;28;20161;-59
2023/05/22 20:42:18;;;;;;;10.43;9.35;;;;;;;22.78;53.98;99860.56;10274896;28;20062;-62
2023/05/22 20:47:19;;;;;;;12.25;10.98;;;;;;;22.68;55.48;99848.50;10273407;28;20142;-59
2023/05/22 20:52:23;;;;;;;14.45;13.13;;;;;;;22.63;56.93;99856.44;10272630;28;20165;-59
2023/05/22 20:57:25;;;;;;;16.15;14.45;;;;;;;22.50;58.03;99858.13;10272549;28;20058;-60
2023/05/22 21:02:26;;;;;;;16.50;14.93;;;;;;;22.50;58.91;99852.69;10276290;28;20104;-58
2023/05/22 21:07:28;;;;;;;18.48;16.58;;;;;;;22.36;59.74;99861.91;10263580;28;20157;-59
2023/05/22 21:12:29;;;;;;;22.30;19.75;;;;;;;22.43;60.52;99854.63;10280398;28;20054;-60
2023/05/22 21:17:31;;;;;;;23.85;21.38;;;;;;;22.31;60.94;99842.69;10281370;28;20413;-60
2023/05/22 21:22:32;;;;;;;26.77;22.55;;;;;;;22.37;62.24;99848.16;10264739;28;20073;-59
2023/05/22 21:27:34;;;;;;;25.23;22.67;;;;;;;22.47;62.33;99853.13;10272512;28;20148;-59
2023/05/22 21:32:36;;;;;;;27.63;24.27;;;;;;;22.46;62.70;99850.63;10291753;28;20365;-60
2023/05/22 21:37:39;;;;;;;30.10;26.80;;;;;;;22.42;62.97;99853.75;10283065;28;20149;-59
2023/05/22 21:42:41;;;;;;;33.60;27.00;;;;;;;22.44;63.15;99856.25;10285842;28;20061;-59
2023/05/22 21:47:47;;;;;;;34.90;28.13;;;;;;;22.48;62.71;99864.81;10288431;28;20057;-60
2023/05/22 21:52:49;;;;;;;35.97;30.42;;;;;;;22.38;63.42;99867.94;10294352;28;20054;-60
2023/05/22 21:57:51;;;;;;;39.47;32.92;;;;;;;22.37;64.77;99877.16;10286820;28;20053;-60
2023/05/22 22:02:53;;;;;;;33.17;29.48;;;;;;;22.33;65.40;99881.31;10276095;28;20054;-60
2023/05/22 22:07:55;;;;;;;37.17;33.15;;;;;;;22.27;65.50;99887.56;10290317;28;20046;-59
2023/05/22 22:12:57;;;;;;;33.22;29.90;;;;;;;22.29;65.66;99888.16;10282269;28;20050;-60
2023/05/22 22:18:00;;;;;;;34.03;30.48;;;;;;;22.30;65.43;99887.94;10286792;28;20066;-60
2023/05/22 22:23:02;;;;;;;37.17;33.13;;;;;;;22.16;65.50;99895.25;10289011;28;20065;-60
2023/05/22 22:28:06;;;;;;;37.78;33.72;;;;;;;22.13;65.53;99884.84;10278278;28;20652;-59
2023/05/22 22:33:07;;;;;;;35.13;31.33;;;;;;;22.12;65.46;99883.16;10277416;28;20852;-59
2023/05/22 22:38:09;;;;;;;37.13;31.23;;;;;;;22.10;65.79;99895.25;10255028;28;20050;-59
2023/05/22 22:43:11;;;;;;;40.72;32.47;;;;;;;21.84;66.16;99884.19;10269112;28;20129;-60
2023/05/22 22:48:12;;;;;;;29.95;26.77;;;;;;;21.84;65.49;99911.28;10290761;28;20057;-59
2023/05/22 22:53:14;;;;;;;30.88;27.60;;;;;;;21.87;65.45;99908.16;10257700;28;20533;-59
2023/05/22 22:58:17;;;;;;;32.10;26.88;;;;;;;21.88;65.23;99915.22;10288532;28;20038;-59
2023/05/22 23:03:19;;;;;;;;;;;;;;;21.89;65.52;99922.34;10287579;28;20311;-59
2023/05/22 23:08:20;;;;;;;28.08;24.92;;;;;;;21.88;64.90;99923.38;10290072;28;19928;-59
2023/05/22 23:13:22;;;;;;;26.63;23.90;;;;;;;21.70;65.31;99929.38;10292551;28;20038;-59
2023/05/22 23:18:23;;;;;;;29.05;25.95;;;;;;;21.56;65.82;99929.53;10286742;28;20066;-59
2023/05/22 23:23:26;;;;;;;28.63;25.75;;;;;;;21.55;66.65;99931.41;10287738;28;20510;-61